createdAt,value
2023-01-25T00:00:46.118Z,64.25
2023-01-25T00:03:13.195Z,64.30
2023-01-25T00:05:40.291Z,63.94
2023-01-25T00:08:07.249Z,63.59
2023-01-25T00:10:34.245Z,63.85
2023-01-25T00:13:01.200Z,63.62
2023-01-25T00:15:28.208Z,63.64
2023-01-25T00:17:55.210Z,63.60
2023-01-25T00:20:22.229Z,63.60
2023-01-25T00:22:49.202Z,63.55
2023-01-25T00:25:16.160Z,64.17
2023-01-25T00:27:43.170Z,63.56
2023-01-25T00:30:10.716Z,63.16
2023-01-25T00:32:49.627Z,63.92
2023-01-25T00:35:16.640Z,63.63
2023-01-25T00:37:47.480Z,63.48
2023-01-25T00:40:14.591Z,63.26
2023-01-25T00:42:42.258Z,62.87
2023-01-25T00:45:13.365Z,63.27
2023-01-25T00:47:40.671Z,63.75
2023-01-25T00:50:08.924Z,63.63
2023-01-25T00:52:35.970Z,63.13
2023-01-25T00:55:03.902Z,63.38
2023-01-25T00:57:31.424Z,63.25
2023-01-25T00:59:58.460Z,63.69
2023-01-25T01:02:25.577Z,63.67
2023-01-25T01:04:56.750Z,63.65
2023-01-25T01:07:23.874Z,63.86
2023-01-25T01:09:52.506Z,64.24
2023-01-25T01:12:19.901Z,64.09
2023-01-25T01:14:47.077Z,64.15
2023-01-25T01:17:14.059Z,64.14
2023-01-25T01:19:41.046Z,63.96
2023-01-25T01:22:08.581Z,63.46
2023-01-25T01:24:35.979Z,64.05
2023-01-25T01:27:03.267Z,63.99
2023-01-25T01:29:30.287Z,63.70
2023-01-25T01:31:57.468Z,63.61
2023-01-25T01:34:26.584Z,63.27
2023-01-25T01:36:54.537Z,63.27
2023-01-25T01:39:22.564Z,62.99
2023-01-25T01:41:49.669Z,62.77
2023-01-25T01:44:22.817Z,63.08
2023-01-25T01:46:58.531Z,63.21
2023-01-25T01:49:32.107Z,63.62
2023-01-25T01:52:15.364Z,63.19
2023-01-25T01:55:05.539Z,62.91
2023-01-25T01:57:40.709Z,63.00
2023-01-25T02:00:14.146Z,63.32
2023-01-25T02:02:42.355Z,63.21
2023-01-25T02:05:18.754Z,63.39
2023-01-25T02:07:49.431Z,63.44
2023-01-25T02:10:20.420Z,63.63
2023-01-25T02:12:48.934Z,63.35
2023-01-25T02:15:16.010Z,63.07
2023-01-25T02:17:43.057Z,63.07
2023-01-25T02:20:15.045Z,62.97
2023-01-25T02:22:51.136Z,63.04
2023-01-25T02:25:18.427Z,62.87
2023-01-25T02:27:52.827Z,63.10
2023-01-25T02:30:20.247Z,62.86
2023-01-25T02:32:47.247Z,62.89
2023-01-25T02:35:22.684Z,62.68
2023-01-25T02:37:50.994Z,62.71
2023-01-25T02:40:18.763Z,62.58
2023-01-25T02:42:46.806Z,62.66
2023-01-25T02:45:19.244Z,62.57
2023-01-25T02:47:46.324Z,62.78
2023-01-25T02:50:15.083Z,62.66
2023-01-25T02:52:42.902Z,62.66
2023-01-25T02:55:10.701Z,62.12
2023-01-25T02:57:39.967Z,62.53
2023-01-25T03:00:08.264Z,62.62
2023-01-25T03:02:35.652Z,62.89
2023-01-25T03:05:02.742Z,62.70
2023-01-25T03:07:30.677Z,62.74
2023-01-25T03:09:58.318Z,62.82
2023-01-25T03:12:25.680Z,62.51
2023-01-25T03:14:53.966Z,62.50
2023-01-25T03:17:20.994Z,62.46
2023-01-25T03:19:49.018Z,62.44
2023-01-25T03:22:16.570Z,62.28
2023-01-25T03:24:43.846Z,62.22
2023-01-25T03:27:11.342Z,62.66
2023-01-25T03:29:51.857Z,62.74
2023-01-25T03:32:25.452Z,62.37
2023-01-25T03:34:53.721Z,62.68
2023-01-25T03:37:21.301Z,62.80
2023-01-25T03:39:49.519Z,62.45
2023-01-25T03:42:16.618Z,62.31
2023-01-25T03:44:44.232Z,62.52
2023-01-25T03:47:11.305Z,62.41
2023-01-25T03:49:38.335Z,62.38
2023-01-25T03:52:07.564Z,62.44
2023-01-25T03:54:37.966Z,62.25
2023-01-25T03:57:06.765Z,62.37
2023-01-25T03:59:41.373Z,62.39
2023-01-25T04:02:08.393Z,62.25
2023-01-25T04:04:36.044Z,62.32
2023-01-25T04:07:03.880Z,62.09
2023-01-25T04:09:32.286Z,61.99
2023-01-25T04:12:00.202Z,62.46
2023-01-25T04:14:43.258Z,62.78
2023-01-25T04:17:11.298Z,62.96
2023-01-25T04:19:54.037Z,62.96
2023-01-25T04:22:25.924Z,62.56
2023-01-25T04:24:55.570Z,62.71
2023-01-25T04:27:22.862Z,62.61
2023-01-25T04:29:57.834Z,62.81
2023-01-25T04:32:26.874Z,62.91
2023-01-25T04:34:54.510Z,63.12
2023-01-25T04:37:24.658Z,63.08
2023-01-25T04:39:58.109Z,62.79
2023-01-25T04:42:26.531Z,62.79
2023-01-25T04:44:56.142Z,62.98
2023-01-25T04:47:24.384Z,62.53
2023-01-25T04:49:51.566Z,63.00
2023-01-25T04:52:23.145Z,62.92
2023-01-25T04:54:50.130Z,62.84
2023-01-25T04:57:18.146Z,62.88
2023-01-25T04:59:49.939Z,63.02
2023-01-25T05:02:17.401Z,63.02
2023-01-25T05:04:44.499Z,63.15
2023-01-25T05:07:11.652Z,63.32
2023-01-25T05:09:38.731Z,63.06
2023-01-25T05:12:11.782Z,63.50
2023-01-25T05:14:53.259Z,63.30
2023-01-25T05:17:21.370Z,62.91
2023-01-25T05:19:48.492Z,63.15
2023-01-25T05:22:20.914Z,63.28
2023-01-25T05:24:51.426Z,63.26
2023-01-25T05:27:20.313Z,63.20
2023-01-25T05:29:53.779Z,63.42
2023-01-25T05:32:25.353Z,62.87
2023-01-25T05:34:52.743Z,63.15
2023-01-25T05:37:21.405Z,63.12
2023-01-25T05:39:55.372Z,63.01
2023-01-25T05:42:22.327Z,62.87
2023-01-25T05:44:49.614Z,62.87
2023-01-25T05:47:18.276Z,62.61
2023-01-25T05:49:46.549Z,63.03
2023-01-25T05:52:24.115Z,62.87
2023-01-25T05:54:51.607Z,62.64
2023-01-25T05:57:18.571Z,62.63
2023-01-25T05:59:45.788Z,62.22
2023-01-25T06:02:16.376Z,62.67
2023-01-25T06:04:44.326Z,62.46
2023-01-25T06:07:11.549Z,62.94
2023-01-25T06:09:38.590Z,63.00
2023-01-25T06:12:06.882Z,62.68
2023-01-25T06:14:34.137Z,63.30
2023-01-25T06:17:02.833Z,63.14
2023-01-25T06:19:48.461Z,63.14
2023-01-25T06:22:30.601Z,63.02
2023-01-25T06:24:57.636Z,62.64
2023-01-25T06:27:24.580Z,62.83
2023-01-25T06:29:51.617Z,62.75
2023-01-25T06:32:18.672Z,62.41
2023-01-25T06:34:46.510Z,62.23
2023-01-25T06:37:21.739Z,62.15
2023-01-25T06:39:48.791Z,62.24
2023-01-25T06:42:15.800Z,62.43
2023-01-25T06:44:42.748Z,62.01
2023-01-25T06:47:10.175Z,62.06
2023-01-25T06:49:37.354Z,62.23
2023-01-25T06:52:04.470Z,62.42
2023-01-25T06:54:31.482Z,62.20
2023-01-25T06:56:58.436Z,62.30
2023-01-25T06:59:25.537Z,61.99
2023-01-25T07:01:52.575Z,62.22
2023-01-25T07:04:19.553Z,62.05
2023-01-25T07:06:46.538Z,62.03
2023-01-25T07:09:14.932Z,62.31
2023-01-25T07:11:41.953Z,62.10
2023-01-25T07:14:08.997Z,62.43
2023-01-25T07:16:39.147Z,62.36
2023-01-25T07:19:07.580Z,62.24
2023-01-25T07:21:34.741Z,62.42
2023-01-25T07:24:02.896Z,62.53
2023-01-25T07:26:30.268Z,61.99
2023-01-25T07:28:58.579Z,62.05
2023-01-25T07:31:26.538Z,61.88
2023-01-25T07:33:55.303Z,62.02
2023-01-25T07:36:22.908Z,62.21
2023-01-25T07:38:53.331Z,62.45
2023-01-25T07:41:20.459Z,62.15
2023-01-25T07:43:47.415Z,62.15
2023-01-25T07:46:21.793Z,61.94
2023-01-25T07:48:51.021Z,61.84
2023-01-25T07:51:23.284Z,61.87
2023-01-25T07:53:56.342Z,61.78
2023-01-25T07:56:25.777Z,61.44
2023-01-25T07:58:55.066Z,61.92
2023-01-25T08:01:24.305Z,61.49
2023-01-25T08:03:51.864Z,61.49
2023-01-25T08:06:27.407Z,61.55
2023-01-25T08:08:55.399Z,61.41
2023-01-25T08:11:28.473Z,61.47
2023-01-25T08:13:56.100Z,61.75
2023-01-25T08:16:26.267Z,61.61
2023-01-25T08:18:55.652Z,61.44
2023-01-25T08:21:30.069Z,61.54
2023-01-25T08:23:58.767Z,61.64
2023-01-25T08:26:26.483Z,61.08
2023-01-25T08:28:54.038Z,61.38
2023-01-25T08:31:30.128Z,61.42
2023-01-25T08:33:58.122Z,61.35
2023-01-25T08:36:25.543Z,61.50
2023-01-25T08:39:01.048Z,61.32
2023-01-25T08:41:30.280Z,61.79
2023-01-25T08:43:57.643Z,61.64
2023-01-25T08:46:29.290Z,61.47
2023-01-25T08:48:57.943Z,61.64
2023-01-25T08:51:25.987Z,61.34
2023-01-25T08:53:53.336Z,61.16
2023-01-25T08:56:20.601Z,61.17
2023-01-25T08:58:49.592Z,61.28
2023-01-25T09:01:18.104Z,61.23
2023-01-25T09:03:47.294Z,61.09
2023-01-25T09:06:15.213Z,61.05
2023-01-25T09:08:42.913Z,60.71
2023-01-25T09:11:15.916Z,60.99
2023-01-25T09:13:43.863Z,61.22
2023-01-25T09:16:13.789Z,61.34
2023-01-25T09:18:43.433Z,61.45
2023-01-25T09:21:16.935Z,61.61
2023-01-25T09:24:04.180Z,61.05
2023-01-25T09:26:33.522Z,61.44
2023-01-25T09:29:00.755Z,61.40
2023-01-25T09:31:27.968Z,61.68
2023-01-25T09:34:14.479Z,61.47
2023-01-25T09:36:41.698Z,61.57
2023-01-25T09:39:13.958Z,61.50
2023-01-25T09:41:58.423Z,61.53
2023-01-25T09:44:37.747Z,61.45
2023-01-25T09:47:16.881Z,61.40
2023-01-25T09:50:17.316Z,61.37
2023-01-25T09:53:14.674Z,61.19
2023-01-25T09:55:42.674Z,61.34
2023-01-25T09:58:19.964Z,61.20
2023-01-25T10:00:52.056Z,61.19
2023-01-25T10:03:38.999Z,60.88
2023-01-25T10:06:06.880Z,61.03
2023-01-25T10:08:48.147Z,61.42
2023-01-25T10:11:27.891Z,61.51
2023-01-25T10:13:56.559Z,61.57
2023-01-25T10:16:37.314Z,61.74
2023-01-25T10:19:19.646Z,61.02
2023-01-25T10:21:51.378Z,61.19
2023-01-25T10:24:35.952Z,61.35
2023-01-25T10:27:14.210Z,61.23
2023-01-25T10:29:41.421Z,61.57
2023-01-25T10:32:28.183Z,60.95
2023-01-25T10:34:58.904Z,60.96
2023-01-25T10:37:29.949Z,61.23
2023-01-25T10:39:59.928Z,61.25
2023-01-25T10:42:29.896Z,61.22
2023-01-25T10:44:56.935Z,61.09
2023-01-25T10:47:27.965Z,61.28
2023-01-25T10:49:56.531Z,61.17
2023-01-25T10:52:29.412Z,61.44
2023-01-25T10:55:19.842Z,61.67
2023-01-25T10:57:51.639Z,61.53
2023-01-25T11:00:30.179Z,61.38
2023-01-25T11:02:57.846Z,61.46
2023-01-25T11:05:36.857Z,61.50
2023-01-25T11:08:34.932Z,61.22
2023-01-25T11:11:40.527Z,60.99
2023-01-25T11:14:18.436Z,60.88
2023-01-25T11:16:50.630Z,60.90
2023-01-25T11:19:38.945Z,61.28
2023-01-25T11:22:21.781Z,61.41
2023-01-25T11:24:48.845Z,61.47
2023-01-25T11:27:26.237Z,61.24
2023-01-25T11:30:19.077Z,61.24
2023-01-25T11:32:46.333Z,60.98
2023-01-25T11:35:25.675Z,61.39
2023-01-25T11:38:02.699Z,61.04
2023-01-25T11:40:48.042Z,61.39
2023-01-25T11:43:30.258Z,61.00
2023-01-25T11:46:17.201Z,60.92
2023-01-25T11:49:00.890Z,61.21
2023-01-25T11:51:44.157Z,61.38
2023-01-25T11:54:42.130Z,61.08
2023-01-25T11:57:35.531Z,60.83
2023-01-25T12:00:18.186Z,60.93
2023-01-25T12:03:00.248Z,61.25
2023-01-25T12:05:44.727Z,60.45
2023-01-25T12:08:18.835Z,60.77
2023-01-25T12:11:13.603Z,60.92
2023-01-25T12:14:02.807Z,61.02
2023-01-25T12:16:29.769Z,60.90
2023-01-25T12:19:02.659Z,60.95
2023-01-25T12:21:48.040Z,61.09
2023-01-25T12:24:33.686Z,61.16
2023-01-25T12:27:19.284Z,61.23
2023-01-25T12:30:12.462Z,60.81
2023-01-25T12:33:13.853Z,60.56
2023-01-25T12:36:06.549Z,60.88
2023-01-25T12:39:03.935Z,60.51
2023-01-25T12:41:43.785Z,60.92
2023-01-25T12:44:35.257Z,60.39
2023-01-25T12:47:15.158Z,60.45
2023-01-25T12:49:54.718Z,60.84
2023-01-25T12:52:41.286Z,60.47
2023-01-25T12:55:14.540Z,60.48
2023-01-25T12:57:51.330Z,60.53
2023-01-25T13:00:55.451Z,60.31
2023-01-25T13:03:51.994Z,60.33
2023-01-25T13:06:32.027Z,60.57
2023-01-25T13:09:12.535Z,60.37
2023-01-25T13:11:41.947Z,60.55
2023-01-25T13:14:18.238Z,60.43
2023-01-25T13:17:01.445Z,60.10
2023-01-25T13:19:31.911Z,60.00
2023-01-25T13:22:00.792Z,60.24
2023-01-25T13:24:32.540Z,60.55
2023-01-25T13:27:02.488Z,60.30
2023-01-25T13:29:38.755Z,60.01
2023-01-25T13:32:13.224Z,60.08
2023-01-25T13:34:44.285Z,60.17
2023-01-25T13:37:24.740Z,60.26
2023-01-25T13:40:06.423Z,60.08
2023-01-25T13:42:39.554Z,60.04
2023-01-25T13:45:18.875Z,60.47
2023-01-25T13:48:01.636Z,60.36
2023-01-25T13:50:34.403Z,60.34
2023-01-25T13:53:17.166Z,60.22
2023-01-25T13:55:46.769Z,60.22
2023-01-25T13:58:25.614Z,60.42
2023-01-25T14:00:55.683Z,60.17
2023-01-25T14:03:28.199Z,60.08
2023-01-25T14:05:57.813Z,60.52
2023-01-25T14:08:26.540Z,60.13
2023-01-25T14:10:54.684Z,60.43
2023-01-25T14:13:21.724Z,61.16
2023-01-25T14:16:01.328Z,60.97
2023-01-25T14:18:32.098Z,61.18
2023-01-25T14:21:20.262Z,61.03
2023-01-25T14:23:48.839Z,61.29
2023-01-25T14:26:23.201Z,61.53
2023-01-25T14:29:01.037Z,61.31
2023-01-25T14:31:37.209Z,61.37
2023-01-25T14:34:06.240Z,61.46
2023-01-25T14:36:35.028Z,61.57
2023-01-25T14:39:04.586Z,61.53
2023-01-25T14:41:41.937Z,61.58
2023-01-25T14:44:15.270Z,61.56
2023-01-25T14:46:42.470Z,61.34
2023-01-25T14:49:13.208Z,61.59
2023-01-25T14:51:41.727Z,61.27
2023-01-25T14:54:36.229Z,61.76
2023-01-25T14:57:06.005Z,61.35
2023-01-25T14:59:50.681Z,61.30
2023-01-25T15:02:39.923Z,61.36
2023-01-25T15:05:19.775Z,61.34
2023-01-25T15:07:52.665Z,61.73
2023-01-25T15:10:31.329Z,61.42
2023-01-25T15:13:12.737Z,61.68
2023-01-25T15:15:50.891Z,61.64
2023-01-25T15:18:53.110Z,61.74
2023-01-25T15:21:24.487Z,61.67
2023-01-25T15:23:52.912Z,61.75
2023-01-25T15:26:25.277Z,61.99
2023-01-25T15:28:55.507Z,61.80
2023-01-25T15:31:43.471Z,61.89
2023-01-25T15:34:17.008Z,62.19
2023-01-25T15:36:44.061Z,61.76
2023-01-25T15:39:19.490Z,62.15
2023-01-25T15:41:46.932Z,61.91
2023-01-25T15:44:14.278Z,62.40
2023-01-25T15:46:46.100Z,62.25
2023-01-25T15:49:18.913Z,62.52
2023-01-25T15:51:46.993Z,62.36
2023-01-25T15:54:13.993Z,62.33
2023-01-25T15:56:42.754Z,62.16
2023-01-25T15:59:17.322Z,62.36
2023-01-25T16:01:44.899Z,62.51
2023-01-25T16:04:15.726Z,62.40
2023-01-25T16:06:50.565Z,62.38
2023-01-25T16:09:21.303Z,62.61
2023-01-25T16:11:51.567Z,62.35
2023-01-25T16:14:19.351Z,62.56
2023-01-25T16:16:49.677Z,62.66
2023-01-25T16:19:19.306Z,62.51
2023-01-25T16:21:46.276Z,62.49
2023-01-25T16:24:13.403Z,62.94
2023-01-25T16:26:45.722Z,62.49
2023-01-25T16:29:13.140Z,62.76
2023-01-25T16:31:40.217Z,62.77
2023-01-25T16:34:07.462Z,62.96
2023-01-25T16:36:34.875Z,63.21
2023-01-25T16:39:15.943Z,63.36
2023-01-25T16:41:42.922Z,63.15
2023-01-25T16:44:09.890Z,62.48
2023-01-25T16:46:36.871Z,62.40
2023-01-25T16:49:07.134Z,62.84
2023-01-25T16:51:34.417Z,62.72
2023-01-25T16:54:01.493Z,63.09
2023-01-25T16:56:31.440Z,62.75
2023-01-25T16:59:02.346Z,63.06
2023-01-25T17:01:29.468Z,63.12
2023-01-25T17:03:56.653Z,63.66
2023-01-25T17:06:27.462Z,63.23
2023-01-25T17:09:02.162Z,63.30
2023-01-25T17:11:32.453Z,64.06
2023-01-25T17:14:01.598Z,63.57
2023-01-25T17:16:29.867Z,63.68
2023-01-25T17:19:07.753Z,63.86
2023-01-25T17:21:35.024Z,63.40
2023-01-25T17:24:02.439Z,63.63
2023-01-25T17:26:31.585Z,63.76
2023-01-25T17:29:02.356Z,64.07
2023-01-25T17:31:32.313Z,63.92
2023-01-25T17:34:03.569Z,63.66
2023-01-25T17:36:30.626Z,63.87
2023-01-25T17:39:02.893Z,63.56
2023-01-25T17:41:29.927Z,63.86
2023-01-25T17:43:57.775Z,63.40
2023-01-25T17:46:37.425Z,63.96
2023-01-25T17:49:06.758Z,63.29
2023-01-25T17:51:34.883Z,63.54
2023-01-25T17:54:03.474Z,63.44
2023-01-25T17:56:30.950Z,63.54
2023-01-25T17:59:01.165Z,64.05
2023-01-25T18:01:32.257Z,63.98
2023-01-25T18:04:00.726Z,63.80
2023-01-25T18:06:30.406Z,64.06
2023-01-25T18:09:00.807Z,63.99
2023-01-25T18:11:33.520Z,64.00
2023-01-25T18:14:03.870Z,64.18
2023-01-25T18:16:32.567Z,64.24
2023-01-25T18:19:01.356Z,64.00
2023-01-25T18:21:31.738Z,64.21
2023-01-25T18:24:35.474Z,63.94
2023-01-25T18:27:08.505Z,64.27
2023-01-25T18:30:00.233Z,64.36
2023-01-25T18:32:28.279Z,64.02
2023-01-25T18:34:55.303Z,64.20
2023-01-25T18:37:24.273Z,64.30
2023-01-25T18:39:55.871Z,63.84
2023-01-25T18:42:26.455Z,64.11
2023-01-25T18:44:53.608Z,64.03
2023-01-25T18:47:22.672Z,64.31
2023-01-25T18:49:51.828Z,64.52
2023-01-25T18:52:20.887Z,63.97
2023-01-25T18:54:47.924Z,64.66
2023-01-25T18:57:15.849Z,63.98
2023-01-25T18:59:43.586Z,63.84
2023-01-25T19:02:12.913Z,63.89
2023-01-25T19:04:40.149Z,64.28
2023-01-25T19:07:07.734Z,64.02
2023-01-25T19:09:34.950Z,63.77
2023-01-25T19:12:02.092Z,64.41
2023-01-25T19:14:29.169Z,64.46
2023-01-25T19:16:56.531Z,64.00
2023-01-25T19:19:23.767Z,64.14
2023-01-25T19:21:50.889Z,64.49
2023-01-25T19:24:19.646Z,63.79
2023-01-25T19:26:47.488Z,64.38
2023-01-25T19:29:15.479Z,64.01
2023-01-25T19:31:42.531Z,63.78
2023-01-25T19:34:12.335Z,63.69
2023-01-25T19:36:45.894Z,63.86
2023-01-25T19:39:15.103Z,63.94
2023-01-25T19:41:42.582Z,63.92
2023-01-25T19:44:12.946Z,64.62
2023-01-25T19:46:40.436Z,64.20
2023-01-25T19:49:08.784Z,64.23
2023-01-25T19:51:38.521Z,64.74
2023-01-25T19:54:09.991Z,64.95
2023-01-25T19:56:40.343Z,65.49
2023-01-25T19:59:11.464Z,65.40
2023-01-25T20:01:41.972Z,65.02
2023-01-25T20:04:09.327Z,64.63
2023-01-25T20:06:36.705Z,65.02
2023-01-25T20:09:04.216Z,65.25
2023-01-25T20:11:32.951Z,64.75
2023-01-25T20:14:03.255Z,64.46
2023-01-25T20:16:32.410Z,64.66
2023-01-25T20:19:00.251Z,64.57
2023-01-25T20:21:28.937Z,64.91
2023-01-25T20:24:00.414Z,64.93
2023-01-25T20:26:30.540Z,65.04
2023-01-25T20:28:58.985Z,64.75
2023-01-25T20:31:33.924Z,64.82
2023-01-25T20:34:04.905Z,64.88
2023-01-25T20:36:34.956Z,64.56
2023-01-25T20:39:02.550Z,64.84
2023-01-25T20:41:29.716Z,65.24
2023-01-25T20:44:04.529Z,65.15
2023-01-25T20:46:34.742Z,64.59
2023-01-25T20:49:02.141Z,65.12
2023-01-25T20:51:29.722Z,64.35
2023-01-25T20:53:57.517Z,64.34
2023-01-25T20:56:24.938Z,64.60
2023-01-25T20:58:53.402Z,64.59
2023-01-25T21:01:28.386Z,65.29
2023-01-25T21:03:59.481Z,64.87
2023-01-25T21:06:29.036Z,64.58
2023-01-25T21:08:56.596Z,64.78
2023-01-25T21:11:23.665Z,65.46
2023-01-25T21:13:50.775Z,65.15
2023-01-25T21:16:21.742Z,64.78
2023-01-25T21:18:54.769Z,65.19
2023-01-25T21:21:31.624Z,65.07
2023-01-25T21:24:02.702Z,64.63
2023-01-25T21:26:32.534Z,65.13
2023-01-25T21:29:01.918Z,64.37
2023-01-25T21:31:36.579Z,64.43
2023-01-25T21:34:05.291Z,64.70
2023-01-25T21:36:32.983Z,64.63
2023-01-25T21:39:00.259Z,64.49
2023-01-25T21:41:30.241Z,64.61
2023-01-25T21:44:17.711Z,64.47
2023-01-25T21:47:00.733Z,64.88
2023-01-25T21:49:51.426Z,64.40
2023-01-25T21:52:18.385Z,64.66
2023-01-25T21:54:45.335Z,63.93
2023-01-25T21:57:12.391Z,64.92
2023-01-25T21:59:41.003Z,64.28
2023-01-25T22:02:13.270Z,64.23
2023-01-25T22:04:40.558Z,63.85
2023-01-25T22:07:09.199Z,63.91
2023-01-25T22:09:36.463Z,64.03
2023-01-25T22:12:05.644Z,64.59
2023-01-25T22:14:32.765Z,64.71
2023-01-25T22:16:59.805Z,64.20
2023-01-25T22:19:26.820Z,64.25
2023-01-25T22:21:53.852Z,64.56
2023-01-25T22:24:21.047Z,64.35
2023-01-25T22:26:59.227Z,64.40
2023-01-25T22:29:26.718Z,64.45
2023-01-25T22:31:53.823Z,64.35
2023-01-25T22:34:20.797Z,65.01
2023-01-25T22:36:48.876Z,64.96
2023-01-25T22:39:15.953Z,65.14
2023-01-25T22:41:43.084Z,64.45
2023-01-25T22:44:10.174Z,64.64
2023-01-25T22:46:37.507Z,64.54
2023-01-25T22:49:05.034Z,64.32
2023-01-25T22:51:32.491Z,64.45
2023-01-25T22:54:00.464Z,64.56
2023-01-25T22:56:32.713Z,64.48
2023-01-25T22:59:00.586Z,64.57
2023-01-25T23:01:33.286Z,64.60
2023-01-25T23:04:01.544Z,65.18
2023-01-25T23:06:31.844Z,65.10
2023-01-25T23:09:14.388Z,64.75
2023-01-25T23:11:41.372Z,64.59
2023-01-25T23:14:30.808Z,65.17
2023-01-25T23:17:17.746Z,65.14
2023-01-25T23:19:44.867Z,64.68
2023-01-25T23:22:11.913Z,65.25
2023-01-25T23:24:38.874Z,65.13
2023-01-25T23:27:05.812Z,65.26
2023-01-25T23:29:32.852Z,64.81
2023-01-25T23:31:59.931Z,65.00
2023-01-25T23:34:27.011Z,64.66
2023-01-25T23:36:53.992Z,64.53
2023-01-25T23:39:20.932Z,64.28
2023-01-25T23:41:49.620Z,64.35
2023-01-25T23:44:16.557Z,64.90
2023-01-25T23:46:43.645Z,64.22
2023-01-25T23:49:10.765Z,64.37
2023-01-25T23:51:37.763Z,64.24
2023-01-25T23:54:04.902Z,64.18
2023-01-25T23:56:31.900Z,64.39
2023-01-25T23:58:58.901Z,64.30
